createdAt,value
2023-02-28T00:02:08.112Z,10.37
2023-02-28T00:04:34.624Z,15.43
2023-02-28T00:07:01.087Z,11.00
2023-02-28T00:09:27.589Z,13.03
2023-02-28T00:11:54.136Z,15.20
2023-02-28T00:14:20.597Z,13.97
2023-02-28T00:16:47.168Z,16.23
2023-02-28T00:19:13.669Z,16.50
2023-02-28T00:21:41.014Z,15.23
2023-02-28T00:24:07.811Z,10.93
2023-02-28T00:26:34.278Z,13.27
2023-02-28T00:29:00.760Z,14.37
2023-02-28T00:31:27.498Z,11.40
2023-02-28T00:33:54.137Z,11.17
2023-02-28T00:36:20.645Z,16.73
2023-02-28T00:38:47.142Z,10.80
2023-02-28T00:41:13.616Z,11.67
2023-02-28T00:43:40.626Z,12.77
2023-02-28T00:46:07.507Z,14.13
2023-02-28T00:48:34.517Z,14.20
2023-02-28T00:51:01.445Z,11.47
2023-02-28T00:53:28.456Z,15.20
2023-02-28T00:55:54.979Z,14.67
2023-02-28T00:58:21.501Z,11.03
2023-02-28T01:00:49.022Z,10.67
2023-02-28T01:03:18.428Z,13.63
2023-02-28T01:05:45.983Z,11.57
2023-02-28T01:08:13.910Z,11.73
2023-02-28T01:10:40.673Z,13.77
2023-02-28T01:13:07.196Z,12.20
2023-02-28T01:15:34.068Z,12.10
2023-02-28T01:18:00.568Z,13.07
2023-02-28T01:20:27.060Z,15.07
2023-02-28T01:22:53.556Z,13.13
2023-02-28T01:25:20.104Z,11.53
2023-02-28T01:27:46.634Z,17.33
2023-02-28T01:30:13.423Z,12.27
2023-02-28T01:32:39.936Z,12.37
2023-02-28T01:35:06.747Z,10.40
2023-02-28T01:37:33.212Z,9.80
2023-02-28T01:39:59.712Z,10.03
2023-02-28T01:42:26.229Z,14.90
2023-02-28T01:45:06.841Z,10.20
2023-02-28T01:47:41.175Z,12.63
2023-02-28T01:50:15.252Z,14.13
2023-02-28T01:52:44.641Z,15.73
2023-02-28T01:55:13.328Z,12.13
2023-02-28T01:57:51.035Z,11.57
2023-02-28T02:00:23.866Z,11.37
2023-02-28T02:02:55.968Z,11.53
2023-02-28T02:05:31.197Z,13.47
2023-02-28T02:08:04.460Z,10.03
2023-02-28T02:10:54.067Z,18.23
2023-02-28T02:17:37.737Z,11.43
2023-02-28T02:22:06.101Z,17.50
2023-02-28T02:25:24.692Z,14.30
2023-02-28T02:34:15.453Z,13.50
2023-02-28T02:38:15.947Z,10.83
2023-02-28T02:43:27.106Z,14.83
2023-02-28T02:46:02.768Z,9.40
2023-02-28T02:48:34.808Z,11.67
2023-02-28T02:51:12.181Z,13.33
2023-02-28T02:53:50.109Z,14.53
2023-02-28T02:56:23.341Z,15.77
2023-02-28T02:58:56.093Z,11.27
2023-02-28T03:01:29.464Z,12.03
2023-02-28T03:04:18.483Z,11.63
2023-02-28T03:06:45.034Z,11.57
2023-02-28T03:09:11.561Z,14.50
2023-02-28T03:11:41.767Z,13.40
2023-02-28T03:15:17.355Z,15.63
2023-02-28T03:18:12.009Z,13.87
2023-02-28T03:23:41.917Z,12.10
2023-02-28T03:26:23.216Z,14.20
2023-02-28T03:29:23.492Z,12.60
2023-02-28T03:31:58.735Z,11.00
2023-02-28T03:34:40.158Z,13.07
2023-02-28T03:37:22.600Z,14.87
2023-02-28T03:40:01.918Z,12.67
2023-02-28T03:42:33.889Z,11.40
2023-02-28T03:45:38.020Z,11.40
2023-02-28T03:48:19.985Z,13.37
2023-02-28T03:50:52.278Z,24.07
2023-02-28T03:53:36.702Z,14.97
2023-02-28T03:59:07.736Z,10.07
2023-02-28T04:01:47.870Z,15.67
2023-02-28T04:04:16.473Z,17.23
2023-02-28T04:06:43.932Z,9.87
2023-02-28T04:09:14.142Z,10.57
2023-02-28T04:11:55.927Z,11.33
2023-02-28T04:14:22.962Z,11.67
2023-02-28T04:16:51.133Z,10.93
2023-02-28T04:19:18.294Z,10.80
2023-02-28T04:21:55.941Z,17.87
2023-02-28T04:24:26.271Z,19.17
2023-02-28T04:26:56.266Z,11.47
2023-02-28T04:29:30.349Z,12.60
2023-02-28T04:32:00.837Z,12.43
2023-02-28T04:34:29.085Z,11.83
2023-02-28T04:37:12.003Z,15.27
2023-02-28T04:39:40.758Z,13.10
2023-02-28T04:42:07.815Z,11.27
2023-02-28T04:44:34.365Z,12.60
2023-02-28T04:47:00.891Z,16.33
2023-02-28T04:49:27.403Z,11.47
2023-02-28T04:51:53.892Z,11.97
2023-02-28T04:54:20.570Z,12.37
2023-02-28T04:56:48.753Z,13.53
2023-02-28T04:59:15.251Z,10.53
2023-02-28T05:01:46.528Z,17.37
2023-02-28T05:04:13.036Z,15.67
2023-02-28T05:06:39.498Z,13.87
2023-02-28T05:09:05.972Z,19.77
2023-02-28T05:11:38.547Z,14.33
2023-02-28T05:14:11.983Z,15.97
2023-02-28T05:16:38.587Z,16.87
2023-02-28T05:19:05.232Z,14.27
2023-02-28T05:21:35.937Z,12.17
2023-02-28T05:24:12.770Z,16.53
2023-02-28T05:26:42.952Z,17.37
2023-02-28T05:29:10.394Z,19.30
2023-02-28T05:31:38.753Z,23.93
2023-02-28T05:34:05.681Z,23.43
2023-02-28T05:36:32.406Z,29.03
2023-02-28T05:38:58.925Z,17.47
2023-02-28T05:41:26.316Z,17.53
2023-02-28T05:43:52.807Z,13.63
2023-02-28T05:46:19.363Z,16.17
2023-02-28T05:48:48.925Z,14.23
2023-02-28T05:51:16.593Z,20.47
2023-02-28T05:53:43.200Z,20.00
2023-02-28T05:56:09.723Z,17.07
2023-02-28T05:58:36.225Z,14.97
2023-02-28T06:01:48.095Z,14.33
2023-02-28T06:04:30.701Z,14.73
2023-02-28T06:06:58.228Z,19.17
2023-02-28T06:09:25.259Z,12.77
2023-02-28T06:11:51.734Z,14.60
2023-02-28T06:14:20.857Z,17.07
2023-02-28T06:16:47.740Z,13.83
2023-02-28T06:19:15.265Z,14.13
2023-02-28T06:21:41.783Z,16.17
2023-02-28T06:24:08.918Z,13.97
2023-02-28T06:26:36.101Z,20.30
2023-02-28T06:29:03.170Z,13.93
2023-02-28T06:31:30.119Z,15.23
2023-02-28T06:33:57.019Z,14.57
2023-02-28T06:36:23.644Z,17.83
2023-02-28T06:38:54.775Z,14.20
2023-02-28T06:41:26.613Z,16.77
2023-02-28T06:43:53.767Z,13.43
2023-02-28T06:46:20.687Z,21.67
2023-02-28T06:48:47.336Z,20.63
2023-02-28T06:51:20.696Z,16.83
2023-02-28T06:53:47.441Z,13.67
2023-02-28T06:56:16.683Z,14.47
2023-02-28T06:58:47.250Z,17.87
2023-02-28T07:01:14.783Z,14.50
2023-02-28T07:03:41.276Z,13.60
2023-02-28T07:06:07.764Z,14.30
2023-02-28T07:08:36.070Z,14.43
2023-02-28T07:11:03.544Z,17.73
2023-02-28T07:13:30.327Z,15.60
2023-02-28T07:16:05.674Z,20.57
2023-02-28T07:18:32.952Z,16.93
2023-02-28T07:21:03.083Z,15.63
2023-02-28T07:23:29.581Z,20.83
2023-02-28T07:25:56.076Z,14.57
2023-02-28T07:28:22.627Z,17.93
2023-02-28T07:30:49.306Z,13.83
2023-02-28T07:33:16.112Z,15.43
2023-02-28T07:35:42.894Z,17.13
2023-02-28T07:38:09.494Z,14.07
2023-02-28T07:40:36.974Z,19.37
2023-02-28T07:43:04.371Z,26.70
2023-02-28T07:45:34.478Z,19.13
2023-02-28T07:48:01.789Z,20.83
2023-02-28T07:50:30.927Z,16.07
2023-02-28T07:52:59.448Z,15.83
2023-02-28T07:55:25.924Z,16.87
2023-02-28T07:57:52.407Z,22.73
2023-02-28T08:00:19.305Z,14.53
2023-02-28T08:02:45.836Z,19.40
2023-02-28T08:05:12.388Z,19.13
2023-02-28T08:07:39.402Z,22.40
2023-02-28T08:10:07.213Z,17.60
2023-02-28T08:12:33.692Z,22.90
2023-02-28T08:15:00.192Z,19.53
2023-02-28T08:17:26.663Z,20.43
2023-02-28T08:19:53.255Z,20.13
2023-02-28T08:22:19.732Z,20.50
2023-02-28T08:24:46.349Z,20.30
2023-02-28T08:27:13.367Z,24.07
2023-02-28T08:29:39.910Z,17.50
2023-02-28T08:32:14.498Z,20.93
2023-02-28T08:34:48.054Z,16.83
2023-02-28T08:37:14.743Z,22.63
2023-02-28T08:39:41.380Z,22.97
2023-02-28T08:42:08.316Z,22.10
2023-02-28T08:44:34.989Z,19.90
2023-02-28T08:47:01.487Z,21.80
2023-02-28T08:49:28.886Z,21.87
2023-02-28T08:51:57.362Z,26.33
2023-02-28T08:54:24.573Z,19.67
2023-02-28T08:56:51.059Z,23.10
2023-02-28T08:59:17.542Z,21.23
2023-02-28T09:01:44.028Z,24.67
2023-02-28T09:04:11.691Z,23.43
2023-02-28T09:06:39.025Z,19.50
2023-02-28T09:09:07.576Z,21.63
2023-02-28T09:11:35.575Z,21.93
2023-02-28T09:14:03.610Z,21.83
2023-02-28T09:16:33.169Z,24.10
2023-02-28T09:19:00.193Z,19.57
2023-02-28T09:21:27.418Z,20.83
2023-02-28T09:23:54.364Z,26.87
2023-02-28T09:26:32.381Z,26.67
2023-02-28T09:29:05.414Z,25.33
2023-02-28T09:31:31.931Z,22.40
2023-02-28T09:34:02.220Z,22.07
2023-02-28T09:36:43.300Z,18.50
2023-02-28T09:39:12.514Z,20.33
2023-02-28T09:41:50.501Z,19.97
2023-02-28T09:45:02.205Z,26.27
2023-02-28T09:47:44.207Z,21.07
2023-02-28T09:50:39.423Z,21.13
2023-02-28T09:53:27.555Z,20.93
2023-02-28T09:56:08.099Z,26.80
2023-02-28T10:01:39.096Z,21.27
2023-02-28T10:05:07.981Z,23.17
2023-02-28T10:08:14.220Z,20.60
2023-02-28T10:10:57.640Z,22.37
2023-02-28T10:13:46.019Z,23.10
2023-02-28T10:16:20.626Z,19.27
2023-02-28T10:18:56.906Z,26.07
2023-02-28T10:21:39.030Z,22.33
2023-02-28T10:26:40.604Z,21.33
2023-02-28T10:29:10.690Z,23.07
2023-02-28T10:31:38.717Z,28.17
2023-02-28T10:34:06.425Z,21.50
2023-02-28T10:36:35.245Z,21.43
2023-02-28T10:39:38.547Z,21.13
2023-02-28T10:42:25.691Z,19.33
2023-02-28T10:45:20.112Z,26.40
2023-02-28T10:49:53.674Z,23.37
2023-02-28T10:52:41.086Z,23.23
2023-02-28T10:55:25.503Z,19.57
2023-02-28T10:57:52.975Z,28.73
2023-02-28T11:00:25.539Z,25.83
2023-02-28T11:02:52.307Z,21.63
2023-02-28T11:05:35.573Z,19.97
2023-02-28T11:08:18.071Z,23.27
2023-02-28T11:11:03.860Z,23.20
2023-02-28T11:13:35.805Z,22.27
2023-02-28T11:16:07.515Z,21.13
2023-02-28T11:18:54.107Z,23.10
2023-02-28T11:21:34.001Z,25.67
2023-02-28T11:24:55.481Z,22.00
2023-02-28T11:28:23.219Z,22.73
2023-02-28T11:31:14.748Z,24.97
2023-02-28T11:33:56.006Z,25.10
2023-02-28T11:36:30.795Z,24.73
2023-02-28T11:39:11.328Z,21.93
2023-02-28T11:47:01.874Z,24.80
2023-02-28T11:52:32.358Z,17.87
2023-02-28T11:56:00.614Z,23.33
2023-02-28T12:00:58.968Z,24.03
2023-02-28T12:04:48.698Z,19.67
2023-02-28T12:09:27.305Z,22.83
2023-02-28T12:12:39.367Z,20.90
2023-02-28T12:16:32.373Z,24.90
2023-02-28T12:19:41.244Z,25.60
2023-02-28T12:22:30.709Z,24.70
2023-02-28T12:26:42.695Z,24.73
2023-02-28T12:31:08.870Z,25.47
2023-02-28T12:33:45.455Z,19.77
2023-02-28T12:36:21.451Z,25.47
2023-02-28T12:39:50.537Z,29.30
2023-02-28T12:42:41.466Z,22.90
2023-02-28T12:45:46.364Z,25.47
2023-02-28T12:48:42.715Z,26.30
2023-02-28T12:51:12.720Z,28.60
2023-02-28T12:56:34.550Z,29.00
2023-02-28T12:59:32.950Z,26.20
2023-02-28T13:04:46.664Z,25.23
2023-02-28T13:08:35.025Z,32.13
2023-02-28T13:11:03.734Z,24.80
2023-02-28T13:13:32.550Z,23.33
2023-02-28T13:16:20.156Z,24.20
2023-02-28T13:18:48.764Z,27.07
2023-02-28T13:24:36.406Z,25.53
2023-02-28T13:27:40.674Z,22.97
2023-02-28T13:31:44.084Z,26.43
2023-02-28T13:34:16.068Z,23.50
2023-02-28T13:36:42.579Z,21.63
2023-02-28T13:44:29.684Z,22.07
2023-02-28T13:47:27.891Z,23.17
2023-02-28T13:49:54.521Z,25.77
2023-02-28T13:52:24.506Z,22.97
2023-02-28T14:03:24.250Z,24.83
2023-02-28T14:06:33.453Z,31.07
2023-02-28T14:10:08.925Z,22.83
2023-02-28T14:15:21.452Z,26.43
2023-02-28T14:17:56.169Z,33.40
2023-02-28T14:20:30.739Z,33.17
2023-02-28T14:23:40.284Z,29.83
2023-02-28T14:31:41.168Z,27.90
2023-02-28T14:36:36.329Z,32.23
2023-02-28T14:39:19.388Z,22.90
2023-02-28T14:41:46.324Z,27.47
2023-02-28T14:44:25.945Z,27.00
2023-02-28T14:47:06.308Z,21.63
2023-02-28T14:49:42.304Z,23.83
2023-02-28T14:52:29.017Z,26.90
2023-02-28T14:55:12.615Z,26.87
2023-02-28T14:57:56.022Z,27.20
2023-02-28T15:00:27.859Z,25.70
2023-02-28T15:02:56.885Z,21.37
2023-02-28T15:05:34.846Z,23.47
2023-02-28T15:08:15.745Z,25.83
2023-02-28T15:10:59.203Z,24.73
2023-02-28T15:13:45.252Z,26.73
2023-02-28T15:16:21.803Z,22.83
2023-02-28T15:18:59.616Z,23.60
2023-02-28T15:21:35.073Z,33.43
2023-02-28T15:24:52.435Z,24.30
2023-02-28T15:27:26.765Z,22.17
2023-02-28T15:30:01.382Z,24.30
2023-02-28T15:32:39.068Z,24.30
2023-02-28T15:35:29.961Z,25.50
2023-02-28T15:38:01.890Z,28.07
2023-02-28T15:40:55.960Z,28.90
2023-02-28T15:43:31.977Z,22.37
2023-02-28T15:46:11.005Z,22.70
2023-02-28T15:48:56.288Z,23.10
2023-02-28T15:51:34.836Z,22.77
2023-02-28T15:54:15.210Z,27.43
2023-02-28T15:56:51.633Z,24.53
2023-02-28T15:59:28.416Z,27.67
2023-02-28T16:02:32.747Z,24.67
2023-02-28T16:07:06.249Z,22.87
2023-02-28T16:09:35.158Z,28.53
2023-02-28T16:12:03.708Z,28.37
2023-02-28T16:14:31.484Z,29.33
2023-02-28T16:17:19.856Z,30.40
2023-02-28T16:19:46.333Z,28.10
2023-02-28T16:22:12.949Z,29.70
2023-02-28T16:24:40.427Z,24.57
2023-02-28T16:27:10.878Z,25.83
2023-02-28T16:29:37.898Z,27.43
2023-02-28T16:32:07.619Z,30.50
2023-02-28T16:34:34.139Z,28.13
2023-02-28T16:37:00.613Z,24.47
2023-02-28T16:39:27.136Z,24.47
2023-02-28T16:41:53.778Z,23.00
2023-02-28T16:44:32.358Z,28.77
2023-02-28T16:47:01.692Z,26.00
2023-02-28T16:49:28.412Z,36.13
2023-02-28T16:51:55.094Z,27.27
2023-02-28T16:54:21.738Z,27.37
2023-02-28T16:56:49.901Z,34.80
2023-02-28T16:59:23.804Z,30.30
2023-02-28T17:01:50.961Z,31.70
2023-02-28T17:04:17.752Z,28.50
2023-02-28T17:06:44.717Z,22.90
2023-02-28T17:09:26.237Z,33.73
2023-02-28T17:11:57.499Z,25.40
2023-02-28T17:14:24.001Z,25.83
2023-02-28T17:16:50.712Z,27.50
2023-02-28T17:19:18.053Z,28.50
2023-02-28T17:21:45.194Z,26.80
2023-02-28T17:24:14.351Z,24.20
2023-02-28T17:26:43.131Z,37.00
2023-02-28T17:29:21.896Z,31.57
2023-02-28T17:31:48.567Z,23.67
2023-02-28T17:34:18.399Z,29.60
2023-02-28T17:36:52.291Z,21.93
2023-02-28T17:39:24.186Z,26.23
2023-02-28T17:41:55.400Z,33.00
2023-02-28T17:44:26.675Z,22.70
2023-02-28T17:46:55.370Z,28.80
2023-02-28T17:49:22.248Z,30.57
2023-02-28T17:51:49.215Z,22.60
2023-02-28T17:54:18.159Z,21.47
2023-02-28T17:56:45.365Z,25.50
2023-02-28T17:59:13.323Z,26.73
2023-02-28T18:01:40.063Z,26.87
2023-02-28T18:04:06.750Z,29.93
2023-02-28T18:06:46.429Z,31.77
2023-02-28T18:09:21.761Z,25.87
2023-02-28T18:11:52.474Z,27.03
2023-02-28T18:14:23.619Z,24.13
2023-02-28T18:16:50.985Z,21.63
2023-02-28T18:19:17.909Z,26.87
2023-02-28T18:21:47.717Z,28.13
2023-02-28T18:24:16.212Z,23.27
2023-02-28T18:26:43.712Z,26.53
2023-02-28T18:29:26.208Z,30.40
2023-02-28T18:31:56.216Z,27.50
2023-02-28T18:34:25.326Z,30.93
2023-02-28T18:36:52.594Z,29.00
2023-02-28T18:39:19.140Z,26.77
2023-02-28T18:41:45.713Z,27.57
2023-02-28T18:44:21.323Z,28.77
2023-02-28T18:46:49.942Z,29.53
2023-02-28T18:49:17.313Z,29.17
2023-02-28T18:51:44.468Z,32.00
2023-02-28T18:54:15.350Z,34.27
2023-02-28T18:56:43.128Z,33.73
2023-02-28T18:59:10.477Z,30.47
2023-02-28T19:01:37.297Z,24.00
2023-02-28T19:04:04.775Z,24.73
2023-02-28T19:06:33.056Z,25.33
2023-02-28T19:09:02.928Z,27.43
2023-02-28T19:11:29.480Z,26.87
2023-02-28T19:13:56.472Z,23.83
2023-02-28T19:16:24.537Z,28.73
2023-02-28T19:18:51.517Z,26.97
2023-02-28T19:21:21.850Z,34.30
2023-02-28T19:23:48.406Z,26.53
2023-02-28T19:26:22.606Z,24.27
2023-02-28T19:28:49.615Z,32.57
2023-02-28T19:31:23.547Z,33.00
2023-02-28T19:33:52.124Z,29.03
2023-02-28T19:36:20.224Z,25.17
2023-02-28T19:38:47.356Z,26.50
2023-02-28T19:41:15.619Z,23.77
2023-02-28T19:43:42.716Z,27.67
2023-02-28T19:46:11.623Z,27.83
2023-02-28T19:48:38.527Z,25.47
2023-02-28T19:51:12.677Z,25.27
2023-02-28T19:53:42.139Z,29.33
2023-02-28T19:56:09.813Z,27.37
2023-02-28T19:58:37.096Z,30.00
2023-02-28T20:01:19.395Z,33.10
2023-02-28T20:03:50.294Z,28.73
2023-02-28T20:06:17.109Z,26.37
2023-02-28T20:08:43.759Z,48.07
2023-02-28T20:11:14.671Z,39.27
2023-02-28T20:13:42.039Z,35.63
2023-02-28T20:16:11.384Z,28.83
2023-02-28T20:18:39.566Z,39.70
2023-02-28T20:21:09.224Z,38.97
2023-02-28T20:23:40.635Z,50.40
2023-02-28T20:26:07.288Z,51.33
2023-02-28T20:28:33.777Z,49.30
2023-02-28T20:31:00.772Z,47.00
2023-02-28T20:33:27.689Z,63.07
2023-02-28T20:36:01.401Z,67.00
2023-02-28T20:38:28.097Z,70.07
2023-02-28T20:40:57.618Z,69.53
2023-02-28T20:43:24.126Z,66.23
2023-02-28T20:45:52.842Z,56.97
2023-02-28T20:48:19.461Z,75.87
2023-02-28T20:50:55.121Z,58.37
2023-02-28T20:53:24.918Z,63.77
2023-02-28T20:56:15.237Z,69.27
2023-02-28T20:58:44.456Z,65.07
2023-02-28T21:01:18.191Z,63.40
2023-02-28T21:03:50.487Z,64.13
2023-02-28T21:06:20.641Z,63.90
2023-02-28T21:08:48.237Z,57.67
2023-02-28T21:11:39.042Z,63.70
2023-02-28T21:14:10.797Z,63.83
2023-02-28T21:16:38.224Z,61.80
2023-02-28T21:19:05.000Z,66.93
2023-02-28T21:21:43.142Z,50.90
2023-02-28T21:24:16.259Z,41.50
2023-02-28T21:26:44.137Z,32.23
2023-02-28T21:29:12.663Z,41.40
2023-02-28T21:31:40.112Z,35.97
2023-02-28T21:34:10.507Z,44.07
2023-02-28T21:36:41.429Z,41.53
2023-02-28T21:39:19.337Z,44.03
2023-02-28T21:41:47.028Z,41.50
2023-02-28T21:44:17.466Z,38.70
2023-02-28T21:46:53.940Z,38.80
2023-02-28T21:49:20.507Z,39.30
2023-02-28T21:51:47.003Z,38.33
2023-02-28T21:54:14.141Z,42.70
2023-02-28T21:56:40.665Z,39.87
2023-02-28T21:59:08.875Z,43.57
2023-02-28T22:01:39.726Z,41.73
2023-02-28T22:04:09.607Z,41.30
2023-02-28T22:06:40.341Z,52.07
2023-02-28T22:09:09.630Z,45.17
2023-02-28T22:11:38.293Z,38.50
2023-02-28T22:14:06.150Z,41.50
2023-02-28T22:16:50.237Z,42.60
2023-02-28T22:19:19.391Z,40.43
2023-02-28T22:21:46.605Z,39.10
2023-02-28T22:24:13.899Z,44.30
2023-02-28T22:26:40.363Z,48.63
2023-02-28T22:29:06.868Z,50.87
2023-02-28T22:31:34.956Z,45.67
2023-02-28T22:34:10.021Z,40.73
2023-02-28T22:36:36.915Z,45.90
2023-02-28T22:39:04.886Z,36.03
2023-02-28T22:41:31.793Z,46.27
2023-02-28T22:44:01.591Z,40.27
2023-02-28T22:46:31.440Z,44.90
2023-02-28T22:48:59.851Z,42.97
2023-02-28T22:51:27.738Z,45.00
2023-02-28T22:53:56.047Z,48.30
2023-02-28T22:56:28.972Z,43.53
2023-02-28T22:58:58.327Z,42.40
2023-02-28T23:01:28.220Z,46.60
2023-02-28T23:03:54.842Z,42.10
2023-02-28T23:06:28.034Z,43.47
2023-02-28T23:08:58.999Z,46.17
2023-02-28T23:11:39.112Z,47.03
2023-02-28T23:14:05.898Z,52.10
2023-02-28T23:16:41.486Z,46.90
2023-02-28T23:19:13.195Z,55.70
2023-02-28T23:21:40.053Z,47.50
2023-02-28T23:24:12.140Z,51.63
2023-02-28T23:26:43.366Z,50.57
2023-02-28T23:29:11.848Z,51.03
2023-02-28T23:31:38.440Z,45.53
2023-02-28T23:34:05.295Z,51.57
2023-02-28T23:36:32.310Z,52.00
2023-02-28T23:38:59.138Z,51.37
2023-02-28T23:41:26.385Z,48.17
2023-02-28T23:43:54.441Z,46.50
2023-02-28T23:46:22.155Z,56.63
2023-02-28T23:48:48.826Z,55.33
2023-02-28T23:51:21.236Z,49.17
2023-02-28T23:53:51.174Z,47.87
2023-02-28T23:56:21.976Z,58.17
2023-02-28T23:58:49.392Z,49.30
